Time,TemperatureF,DewpointF,PressureIn,WindDirection,WindDirectionDegrees,WindSpeedMPH,WindSpeedGustMPH,Humidity,HourlyPrecipIn,Conditions,Clouds,dailyrainin,SoftwareType,DateUTC
2013-03-10 00:01:00,24.0,16.0,-100.00,West,267,9.0,11.0,70,-99.99,,,-99.99,,2013-03-10 07:01:00,
2013-03-10 00:11:00,24.0,16.0,-100.00,West,265,7.0,9.0,70,-99.99,,,-99.99,,2013-03-10 07:11:00,
2013-03-10 00:21:00,24.0,16.0,-100.00,West,271,8.0,8.0,70,-99.99,,,-99.99,,2013-03-10 07:21:00,
2013-03-10 00:31:00,23.0,16.0,-100.00,West,265,5.0,8.0,71,-99.99,,,-99.99,,2013-03-10 07:31:00,
2013-03-10 00:41:00,23.0,16.0,-100.00,West,265,5.0,8.0,71,-99.99,,,-99.99,,2013-03-10 07:41:00,
2013-03-10 00:52:00,23.0,15.0,-100.00,WNW,282,1.0,5.0,71,-99.99,,,-99.99,,2013-03-10 07:52:00,
2013-03-10 01:01:00,23.0,15.0,-100.00,WNW,282,1.0,5.0,71,-99.99,,,-99.99,,2013-03-10 08:01:00,
2013-03-10 01:11:00,23.0,15.0,-100.00,SW,225,3.0,3.0,71,-99.99,,,-99.99,,2013-03-10 08:11:00,
2013-03-10 01:21:00,23.0,15.0,-100.00,WSW,247,3.0,4.0,71,-99.99,,,-99.99,,2013-03-10 08:21:00,
2013-03-10 01:31:00,23.0,15.0,-100.00,WSW,247,3.0,4.0,71,-99.99,,,-99.99,,2013-03-10 08:31:00,
2013-03-10 01:42:00,23.0,15.0,-100.00,WSW,247,3.0,4.0,71,-99.99,,,-99.99,,2013-03-10 08:42:00,
2013-03-10 01:51:00,22.0,15.0,-100.00,WSW,249,4.0,5.0,73,-99.99,,,-99.99,,2013-03-10 08:51:00,
2013-03-10 03:01:00,22.0,15.0,-100.00,WSW,249,4.0,5.0,73,-99.99,,,-99.99,,2013-03-10 09:01:00,
2013-03-10 03:11:00,22.0,15.0,-100.00,West,259,1.0,3.0,73,-99.99,,,-99.99,,2013-03-10 09:11:00,
2013-03-10 03:21:00,22.0,15.0,-100.00,West,259,1.0,3.0,73,-99.99,,,-99.99,,2013-03-10 09:21:00,
2013-03-10 03:31:00,21.0,15.0,-100.00,WSW,241,1.0,2.0,74,-99.99,,,-99.99,,2013-03-10 09:31:00,
2013-03-10 03:41:00,21.0,15.0,-100.00,WSW,241,1.0,2.0,74,-99.99,,,-99.99,,2013-03-10 09:41:00,
2013-03-10 03:51:00,21.0,14.0,-100.00,SW,233,3.0,3.0,74,-99.99,,,-99.99,,2013-03-10 09:51:00,
2013-03-10 04:01:00,21.0,14.0,-100.00,SW,233,3.0,3.0,74,-99.99,,,-99.99,,2013-03-10 10:01:00,
2013-03-10 04:11:00,20.0,13.0,-100.00,SW,231,0.0,2.0,74,-99.99,,,-99.99,,2013-03-10 10:11:00,
2013-03-10 04:21:00,20.0,13.0,-100.00,SW,231,0.0,2.0,74,-99.99,,,-99.99,,2013-03-10 10:21:00,
2013-03-10 04:31:00,19.0,12.0,-100.00,SW,228,2.0,2.0,76,-99.99,,,-99.99,,2013-03-10 10:31:00,
2013-03-10 04:41:00,19.0,12.0,-100.00,SW,228,2.0,2.0,76,-99.99,,,-99.99,,2013-03-10 10:41:00,
2013-03-10 04:51:00,18.0,12.0,-100.00,SW,234,1.0,1.0,76,-99.99,,,-99.99,,2013-03-10 10:51:00,
2013-03-10 05:01:00,18.0,12.0,-100.00,SW,234,1.0,1.0,76,-99.99,,,-99.99,,2013-03-10 11:01:00,
2013-03-10 05:11:00,19.0,13.0,-100.00,North,0,0.0,0.0,76,-99.99,,,-99.99,,2013-03-10 11:11:00,
2013-03-10 05:21:00,19.0,13.0,-100.00,North,0,0.0,0.0,76,-99.99,,,-99.99,,2013-03-10 11:21:00,
2013-03-10 05:31:00,18.0,12.0,-100.00,West,266,1.0,1.0,77,-99.99,,,-99.99,,2013-03-10 11:31:00,
2013-03-10 05:42:00,18.0,12.0,-100.00,West,266,1.0,1.0,77,-99.99,,,-99.99,,2013-03-10 11:42:00,
2013-03-10 05:52:00,19.0,13.0,-100.00,North,0,0.0,1.0,78,-99.99,,,-99.99,,2013-03-10 11:52:00,
2013-03-10 06:01:00,19.0,13.0,-100.00,North,0,0.0,1.0,78,-99.99,,,-99.99,,2013-03-10 12:01:00,
2013-03-10 06:11:00,17.0,11.0,-100.00,WNW,285,1.0,3.0,78,-99.99,,,-99.99,,2013-03-10 12:11:00,
2013-03-10 06:21:00,17.0,11.0,-100.00,WNW,285,1.0,3.0,78,-99.99,,,-99.99,,2013-03-10 12:21:00,
2013-03-10 06:31:00,16.0,11.0,-100.00,West,269,1.0,2.0,79,-99.99,,,-99.99,,2013-03-10 12:31:00,
2013-03-10 06:42:00,16.0,11.0,-100.00,West,269,1.0,2.0,79,-99.99,,,-99.99,,2013-03-10 12:42:00,
2013-03-10 06:51:00,17.0,12.0,-100.00,West,278,4.0,5.0,81,-99.99,,,-99.99,,2013-03-10 12:51:00,
2013-03-10 07:01:00,17.0,12.0,-100.00,West,278,4.0,5.0,81,-99.99,,,-99.99,,2013-03-10 13:01:00,
2013-03-10 07:11:00,17.0,12.0,-100.00,WNW,282,4.0,6.0,82,-99.99,,,-99.99,,2013-03-10 13:11:00,
2013-03-10 07:21:00,17.0,12.0,-100.00,WNW,282,4.0,6.0,82,-99.99,,,-99.99,,2013-03-10 13:21:00,
2013-03-10 07:31:00,16.0,11.0,-100.00,North,0,0.0,1.0,82,-99.99,,,-99.99,,2013-03-10 13:31:00,
2013-03-10 07:41:00,16.0,11.0,-100.00,North,0,0.0,1.0,82,-99.99,,,-99.99,,2013-03-10 13:41:00,
2013-03-10 07:52:00,15.0,11.0,-100.00,North,0,0.0,4.0,83,-99.99,,,-99.99,,2013-03-10 13:52:00,
2013-03-10 08:01:00,15.0,11.0,-100.00,North,0,0.0,4.0,83,-99.99,,,-99.99,,2013-03-10 14:01:00,
2013-03-10 08:11:00,15.0,11.0,-100.00,North,0,0.0,2.0,83,-99.99,,,-99.99,,2013-03-10 14:11:00,
2013-03-10 08:21:00,15.0,11.0,-100.00,North,0,0.0,2.0,83,-99.99,,,-99.99,,2013-03-10 14:21:00,
2013-03-10 08:32:00,15.0,11.0,-100.00,NNE,19,2.0,2.0,84,-99.99,,,-99.99,,2013-03-10 14:32:00,
2013-03-10 08:41:00,15.0,11.0,-100.00,NNE,19,2.0,2.0,84,-99.99,,,-99.99,,2013-03-10 14:41:00,
2013-03-10 08:51:00,18.0,14.0,-100.00,North,0,0.0,1.0,83,-99.99,,,-99.99,,2013-03-10 14:51:00,
2013-03-10 09:01:00,18.0,14.0,-100.00,North,0,0.0,1.0,83,-99.99,,,-99.99,,2013-03-10 15:01:00,
2013-03-10 09:11:00,19.0,14.0,-100.00,NNE,14,2.0,4.0,80,-99.99,,,-99.99,,2013-03-10 15:11:00,
2013-03-10 09:21:00,19.0,14.0,-100.00,NNE,14,2.0,4.0,80,-99.99,,,-99.99,,2013-03-10 15:21:00,
2013-03-10 09:30:00,24.0,18.0,-100.00,ENE,66,0.0,3.0,77,-99.99,,,-99.99,,2013-03-10 15:30:00,
2013-03-10 09:31:00,18.0,14.0,-100.00,East,95,3.0,3.0,81,-99.99,,,-99.99,,2013-03-10 15:31:00,
2013-03-10 09:42:00,18.0,14.0,-100.00,East,95,3.0,3.0,81,-99.99,,,-99.99,,2013-03-10 15:42:00,
2013-03-10 09:51:00,22.0,17.0,-100.00,North,0,0.0,3.0,81,-99.99,,,-99.99,,2013-03-10 15:51:00,
2013-03-10 10:01:00,22.0,17.0,-100.00,North,0,0.0,3.0,81,-99.99,,,-99.99,,2013-03-10 16:01:00,
2013-03-10 10:11:00,24.0,18.0,-100.00,ENE,66,0.0,3.0,77,-99.99,,,-99.99,,2013-03-10 16:11:00,
2013-03-10 10:21:00,24.0,18.0,-100.00,ENE,66,0.0,3.0,77,-99.99,,,-99.99,,2013-03-10 16:21:00,
2013-03-10 12:01:00,34.0,18.0,-100.00,WNW,289,8.0,10.0,52,-99.99,,,-99.99,,2013-03-10 18:01:00,
2013-03-10 12:11:00,35.0,18.0,-100.00,WNW,283,9.0,11.0,48,-99.99,,,-99.99,,2013-03-10 18:11:00,
2013-03-10 12:21:00,36.0,16.0,-100.00,WNW,286,11.0,13.0,43,-99.99,,,-99.99,,2013-03-10 18:21:00,
2013-03-10 12:31:00,36.0,16.0,-100.00,WNW,286,11.0,13.0,43,-99.99,,,-99.99,,2013-03-10 18:31:00,
2013-03-10 12:41:00,36.0,16.0,-100.00,WNW,291,10.0,13.0,42,-99.99,,,-99.99,,2013-03-10 18:41:00,
2013-03-10 12:52:00,36.0,15.0,-100.00,WNW,295,9.0,13.0,40,-99.99,,,-99.99,,2013-03-10 18:52:00,
2013-03-10 13:01:00,37.0,14.0,-100.00,West,278,6.0,11.0,39,-99.99,,,-99.99,,2013-03-10 19:01:00,
2013-03-10 13:11:00,38.0,14.0,-100.00,West,259,6.0,8.0,37,-99.99,,,-99.99,,2013-03-10 19:11:00,
2013-03-10 13:21:00,38.0,13.0,-100.00,West,259,5.0,9.0,34,-99.99,,,-99.99,,2013-03-10 19:21:00,
2013-03-10 13:31:00,39.0,14.0,-100.00,West,263,8.0,11.0,35,-99.99,,,-99.99,,2013-03-10 19:31:00,
2013-03-10 13:41:00,39.0,12.0,-100.00,West,277,9.0,12.0,32,-99.99,,,-99.99,,2013-03-10 19:41:00,
2013-03-10 13:52:00,39.0,13.0,-100.00,West,278,10.0,13.0,34,-99.99,,,-99.99,,2013-03-10 19:52:00,
2013-03-10 14:02:00,39.0,13.0,-100.00,WNW,283,7.0,12.0,33,-99.99,,,-99.99,,2013-03-10 20:02:00,
2013-03-10 14:12:00,40.0,13.0,-100.00,WNW,300,10.0,16.0,33,-99.99,,,-99.99,,2013-03-10 20:12:00,
2013-03-10 14:22:00,40.0,13.0,-100.00,WNW,300,10.0,16.0,33,-99.99,,,-99.99,,2013-03-10 20:22:00,
2013-03-10 14:32:00,40.0,14.0,-100.00,West,276,7.0,15.0,33,-99.99,,,-99.99,,2013-03-10 20:32:00,
2013-03-10 14:42:00,41.0,14.0,-100.00,WNW,288,10.0,13.0,32,-99.99,,,-99.99,,2013-03-10 20:42:00,
2013-03-10 14:52:00,40.0,15.0,-100.00,West,260,16.0,20.0,35,-99.99,,,-99.99,,2013-03-10 20:52:00,
2013-03-10 15:02:00,40.0,14.0,-100.00,West,263,17.0,19.0,34,-99.99,,,-99.99,,2013-03-10 21:02:00,
2013-03-10 15:12:00,41.0,16.0,-100.00,West,264,13.0,18.0,36,-99.99,,,-99.99,,2013-03-10 21:12:00,
2013-03-10 15:22:00,40.0,15.0,-100.00,WSW,249,15.0,19.0,36,-99.99,,,-99.99,,2013-03-10 21:22:00,
2013-03-10 15:32:00,41.0,14.0,-100.00,WSW,246,10.0,15.0,33,-99.99,,,-99.99,,2013-03-10 21:32:00,
2013-03-10 15:42:00,40.0,20.0,-100.00,West,274,15.0,18.0,43,-99.99,,,-99.99,,2013-03-10 21:42:00,
2013-03-10 15:52:00,41.0,16.0,-100.00,WSW,237,10.0,19.0,35,-99.99,,,-99.99,,2013-03-10 21:52:00,
2013-03-10 16:02:00,41.0,16.0,-100.00,WSW,237,10.0,19.0,35,-99.99,,,-99.99,,2013-03-10 22:02:00,
2013-03-10 16:11:00,41.0,18.0,-100.00,West,277,10.0,14.0,38,-99.99,,,-99.99,,2013-03-10 22:11:00,
2013-03-10 16:22:00,41.0,18.0,-100.00,West,278,11.0,14.0,38,-99.99,,,-99.99,,2013-03-10 22:22:00,
2013-03-10 16:32:00,41.0,18.0,-100.00,West,278,11.0,14.0,38,-99.99,,,-99.99,,2013-03-10 22:32:00,
2013-03-10 16:42:00,42.0,15.0,-100.00,WNW,292,8.0,13.0,32,-99.99,,,-99.99,,2013-03-10 22:42:00,
2013-03-10 16:52:00,41.0,21.0,-100.00,WNW,283,12.0,17.0,43,-99.99,,,-99.99,,2013-03-10 22:52:00,
2013-03-10 17:02:00,41.0,21.0,-100.00,WNW,283,12.0,17.0,43,-99.99,,,-99.99,,2013-03-10 23:02:00,
2013-03-10 17:12:00,41.0,18.0,-100.00,West,261,13.0,15.0,38,-99.99,,,-99.99,,2013-03-10 23:12:00,
2013-03-10 17:22:00,42.0,21.0,-100.00,WSW,254,9.0,16.0,43,-99.99,,,-99.99,,2013-03-10 23:22:00,
2013-03-10 17:32:00,40.0,19.0,-100.00,West,266,16.0,21.0,42,-99.99,,,-99.99,,2013-03-10 23:32:00,
2013-03-10 17:42:00,40.0,19.0,-100.00,West,266,16.0,21.0,42,-99.99,,,-99.99,,2013-03-10 23:42:00,
2013-03-10 17:51:00,40.0,20.0,-100.00,West,266,17.0,21.0,44,-99.99,,,-99.99,,2013-03-10 23:51:00,
2013-03-10 18:02:00,40.0,20.0,-100.00,West,266,17.0,21.0,44,-99.99,,,-99.99,,2013-03-11 00:02:00,
2013-03-10 18:12:00,39.0,18.0,-100.00,WSW,257,16.0,23.0,42,-99.99,,,-99.99,,2013-03-11 00:12:00,
2013-03-10 18:22:00,39.0,17.0,-100.00,WSW,257,16.0,21.0,41,-99.99,,,-99.99,,2013-03-11 00:22:00,
2013-03-10 18:32:00,39.0,17.0,-100.00,WSW,257,16.0,21.0,41,-99.99,,,-99.99,,2013-03-11 00:32:00,
2013-03-10 18:42:00,39.0,15.0,-100.00,WSW,237,10.0,14.0,36,-99.99,,,-99.99,,2013-03-11 00:42:00,
2013-03-10 18:52:00,39.0,13.0,-100.00,SW,235,8.0,16.0,34,-99.99,,,-99.99,,2013-03-11 00:52:00,
2013-03-10 19:02:00,39.0,13.0,-100.00,SW,235,8.0,16.0,34,-99.99,,,-99.99,,2013-03-11 01:02:00,
2013-03-10 19:12:00,39.0,10.0,-100.00,WSW,253,13.0,17.0,30,-99.99,,,-99.99,,2013-03-11 01:12:00,
2013-03-10 19:22:00,38.0,14.0,-100.00,West,280,9.0,17.0,36,-99.99,,,-99.99,,2013-03-11 01:22:00,
2013-03-10 19:32:00,36.0,19.0,-100.00,WNW,298,7.0,11.0,48,-99.99,,,-99.99,,2013-03-11 01:32:00,
2013-03-10 19:42:00,36.0,19.0,-100.00,WNW,298,7.0,11.0,48,-99.99,,,-99.99,,2013-03-11 01:42:00,
2013-03-10 19:52:00,35.0,22.0,-100.00,NW,312,8.0,14.0,58,-99.99,,,-99.99,,2013-03-11 01:52:00,
2013-03-10 20:02:00,35.0,22.0,-100.00,NW,312,8.0,14.0,58,-99.99,,,-99.99,,2013-03-11 02:02:00,
2013-03-10 20:12:00,34.0,22.0,-100.00,WNW,301,10.0,13.0,61,-99.99,,,-99.99,,2013-03-11 02:12:00,
2013-03-10 20:21:00,34.0,22.0,-100.00,WNW,300,8.0,12.0,60,-99.99,,,-99.99,,2013-03-11 02:21:00,
2013-03-10 20:32:00,34.0,22.0,-100.00,WNW,300,8.0,12.0,60,-99.99,,,-99.99,,2013-03-11 02:32:00,
2013-03-10 20:42:00,33.0,22.0,-100.00,West,267,7.0,11.0,62,-99.99,,,-99.99,,2013-03-11 02:42:00,
2013-03-10 20:52:00,34.0,18.0,-100.00,NW,307,9.0,14.0,50,-99.99,,,-99.99,,2013-03-11 02:52:00,
2013-03-10 21:02:00,34.0,18.0,-100.00,NW,307,9.0,14.0,50,-99.99,,,-99.99,,2013-03-11 03:02:00,
2013-03-10 21:12:00,35.0,16.0,-100.00,NW,306,8.0,11.0,45,-99.99,,,-99.99,,2013-03-11 03:12:00,
2013-03-10 21:22:00,34.0,18.0,-100.00,WNW,287,5.0,9.0,51,-99.99,,,-99.99,,2013-03-11 03:22:00,
2013-03-10 21:32:00,34.0,18.0,-100.00,WNW,287,5.0,9.0,51,-99.99,,,-99.99,,2013-03-11 03:32:00,
2013-03-10 21:42:00,33.0,19.0,-100.00,WNW,295,7.0,9.0,55,-99.99,,,-99.99,,2013-03-11 03:42:00,
2013-03-10 21:52:00,33.0,18.0,-100.00,WNW,285,9.0,12.0,54,-99.99,,,-99.99,,2013-03-11 03:52:00,
2013-03-10 22:02:00,33.0,18.0,-100.00,WNW,285,9.0,12.0,54,-99.99,,,-99.99,,2013-03-11 04:02:00,
2013-03-10 22:12:00,33.0,19.0,-100.00,West,274,8.0,11.0,55,-99.99,,,-99.99,,2013-03-11 04:12:00,
2013-03-10 22:22:00,33.0,18.0,-100.00,West,280,10.0,12.0,52,-99.99,,,-99.99,,2013-03-11 04:22:00,
2013-03-10 22:32:00,34.0,17.0,-100.00,South,189,4.0,7.0,48,-99.99,,,-99.99,,2013-03-11 04:32:00,
2013-03-10 22:42:00,34.0,16.0,-100.00,West,279,6.0,8.0,47,-99.99,,,-99.99,,2013-03-11 04:42:00,
2013-03-10 22:52:00,34.0,16.0,-100.00,West,279,6.0,8.0,47,-99.99,,,-99.99,,2013-03-11 04:52:00,
2013-03-10 23:03:00,34.0,16.0,-100.00,West,279,6.0,8.0,47,-99.99,,,-99.99,,2013-03-11 05:03:00,
2013-03-10 23:11:00,32.0,18.0,-100.00,ESE,102,4.0,5.0,56,-99.99,,,-99.99,,2013-03-11 05:11:00,
2013-03-10 23:21:00,32.0,18.0,-100.00,South,169,3.0,5.0,54,-99.99,,,-99.99,,2013-03-11 05:21:00,
2013-03-10 23:32:00,31.0,18.0,-100.00,East,85,2.0,2.0,59,-99.99,,,-99.99,,2013-03-11 05:32:00,
2013-03-10 23:42:00,31.0,18.0,-100.00,East,85,2.0,2.0,59,-99.99,,,-99.99,,2013-03-11 05:42:00,
2013-03-10 23:52:00,30.0,19.0,-100.00,ENE,63,4.0,4.0,62,-99.99,,,-99.99,,2013-03-11 05:52:00,